Vandiver, Alabama
Current Conditions -  °F | °C
As of 4:01 PM on Sunday 23 Nov 2014 (Local Time) from KBHM Reporting Station
Overcast Overcast  
Wind Chill: 64°   Ceiling: 4200
Heat Index: 64°   Visibility: 10mi
Dew Point: 59°   Wind: 17mph
Humidity: 84%   Direction: 190°S
Pressure: 29.59"   Gusts: 25mph
Location:  33.47°N, 86.51°W
Report Text: KBHM 232201Z 19015G22KT 10SM FEW024 SCT029 OVC042 18/15 A2959 RMK AO2 T01780150
Loading
Personal Weather Stations






























Interactive Weather Map New forecast layout! Learn more

10-Day Weather Forecast

Advertisements
Track Severe Weather on mobile